Time;durP1;ratioP1;P1;durP2;ratioP2;P2;SDS_P1;SDS_P2;PMS_P1;PMS_P2;Temp;Humidity;BMP_temperature;BMP_pressure;BME280_temperature;BME280_humidity;BME280_pressure;Samples;Min_cycle;Max_cycle;Signal;HPM_P1;HPM_P2
2023/06/07 00:01:36;;;;;;;;;;;;;;;;;;4993275;28;89771;-77
2023/06/07 00:04:02;;;;;;;;;;;;;;;;;;4997970;28;89436;-79
2023/06/07 00:06:28;;;;;;;;;;;;;;;;;;4994841;28;90183;-76
2023/06/07 00:08:53;;;;;;;;;;;;;;;;;;4994283;28;89768;-75
2023/06/07 00:11:21;;;;;;;;;;;;;;;;;;4999143;28;89291;-77
2023/06/07 00:13:46;;;;;;;;;;;;;;;;;;4999459;28;89250;-78
2023/06/07 00:16:12;;;;;;;;;;;;;;;;;;4999230;28;90296;-75
2023/06/07 00:18:37;;;;;;;;;;;;;;;;;;4997628;28;89238;-77
2023/06/07 00:21:04;;;;;;;;;;;;;;;;;;5001622;28;89350;-78
2023/06/07 00:23:30;;;;;;;;;;;;;;;;;;4993211;28;89299;-77
2023/06/07 00:25:56;;;;;;;;;;;;;;;;;;4999896;28;89261;-77
2023/06/07 00:28:22;;;;;;;;;;;;;;;;;;4995994;28;91068;-76
2023/06/07 00:30:47;;;;;;;;;;;;;;;;;;5000200;28;89184;-79
2023/06/07 00:33:12;;;;;;;;;;;;;;;;;;4999446;28;90155;-80
2023/06/07 00:35:37;;;;;;;;;;;;;;;;;;5001072;28;89546;-77
2023/06/07 00:38:05;;;;;;;;;;;;;;;;;;4995353;28;89943;-78
2023/06/07 00:40:30;;;;;;;;;;;;;;;;;;4998244;28;89559;-76
2023/06/07 00:42:55;;;;;;;;;;;;;;;;;;4995925;28;89566;-79
2023/06/07 00:45:20;;;;;;;;;;;;;;;;;;4999036;28;89070;-79
2023/06/07 00:47:46;;;;;;;;;;;;;;;;;;4991290;28;89550;-77
2023/06/07 00:50:11;;;;;;;;;;;;;;;;;;4992273;28;92381;-77
2023/06/07 00:52:37;;;;;;;;;;;;;;;;;;4991169;28;89843;-77
2023/06/07 00:55:03;;;;;;;;;;;;;;;;;;4997917;28;90698;-75
2023/06/07 00:57:29;;;;;;;;;;;;;;;;;;4998198;28;89261;-75
2023/06/07 00:59:55;;;;;;;;;;;;;;;;;;4996775;28;91053;-76
2023/06/07 01:02:20;;;;;;;;;;;;;;;;;;4996695;28;90693;-77
2023/06/07 01:04:49;;;;;;;;;;;;;;;;;;5000835;28;89430;-77
2023/06/07 01:07:17;;;;;;;;;;;;;;;;;;4996140;28;90782;-76
2023/06/07 01:09:42;;;;;;;;;;;;;;;;;;4994005;28;90110;-78
2023/06/07 01:12:11;;;;;;;;;;;;;;;;;;4994362;28;89807;-77
2023/06/07 01:14:36;;;;;;;;;;;;;;;;;;4996681;28;90529;-78
2023/06/07 01:17:02;;;;;;;;;;;;;;;;;;4995023;28;90092;-78
2023/06/07 01:19:29;;;;;;;;;;;;;;;;;;4993349;28;89541;-78
2023/06/07 01:21:58;;;;;;;;;;;;;;;;;;4992799;28;89902;-76
2023/06/07 01:24:24;;;;;;;;;;;;;;;;;;4994018;28;89966;-75
2023/06/07 01:26:52;;;;;;;;;;;;;;;;;;4996294;28;89561;-77
2023/06/07 01:29:18;;;;;;;;;;;;;;;;;;4996100;28;89205;-75
2023/06/07 01:31:43;;;;;;;;;;;;;;;;;;4995780;28;89358;-78
2023/06/07 01:34:09;;;;;;;;;;;;;;;;;;4997833;28;89483;-75
2023/06/07 01:36:34;;;;;;;;;;;;;;;;;;4994787;28;89274;-79
2023/06/07 01:39:00;;;;;;;;;;;;;;;;;;4993803;28;89244;-74
2023/06/07 01:41:27;;;;;;;;;;;;;;;;;;4990366;28;89552;-77
2023/06/07 01:43:52;;;;;;;;;;;;;;;;;;4996901;28;89470;-77
2023/06/07 01:46:18;;;;;;;;;;;;;;;;;;5001874;28;90567;-80
2023/06/07 01:48:43;;;;;;;;;;;;;;;;;;4994808;28;89012;-75
2023/06/07 01:51:08;;;;;;;;;;;;;;;;;;4997044;28;89126;-76
2023/06/07 01:53:34;;;;;;;;;;;;;;;;;;4996741;28;90773;-79
2023/06/07 01:56:16;;;;;;;;;;;;;;;;;;5014761;27;90351;-77
2023/06/07 01:59:04;;;;;;;;;;;;;;;;;;4994103;28;89468;-79
2023/06/07 02:01:38;;;;;;;;;;;;;;;;;;4992414;28;89791;-79
2023/06/07 02:04:04;;;;;;;;;;;;;;;;;;4997409;28;89065;-78
2023/06/07 02:06:32;;;;;;;;;;;;;;;;;;4995349;28;89833;-77
2023/06/07 02:09:00;;;;;;;;;;;;;;;;;;4997663;28;89660;-76
2023/06/07 02:11:26;;;;;;;;;;;;;;;;;;4996824;28;90972;-77
2023/06/07 02:13:52;;;;;;;;;;;;;;;;;;4994234;28;90696;-78
2023/06/07 02:16:32;;;;;;;;;;;;;;;;;;4994720;28;89283;-78
2023/06/07 02:18:57;;;;;;;;;;;;;;;;;;4992327;28;89027;-78
2023/06/07 02:21:22;;;;;;;;;;;;;;;;;;4995153;28;90664;-76
2023/06/07 02:23:48;;;;;;;;;;;;;;;;;;4994299;28;89473;-78
2023/06/07 02:26:13;;;;;;;;;;;;;;;;;;4999117;28;89536;-77
2023/06/07 02:28:38;;;;;;;;;;;;;;;;;;4995497;28;89540;-77
2023/06/07 02:31:03;;;;;;;;;;;;;;;;;;4993111;28;89498;-77
2023/06/07 02:33:28;;;;;;;;;;;;;;;;;;4996693;28;90672;-76
2023/06/07 02:35:54;;;;;;;;;;;;;;;;;;4996666;28;89773;-77
2023/06/07 02:38:20;;;;;;;;;;;;;;;;;;4994569;28;89196;-78
2023/06/07 02:40:45;;;;;;;;;;;;;;;;;;4994912;28;89494;-79
2023/06/07 02:43:10;;;;;;;;;;;;;;;;;;4993394;28;90257;-77
2023/06/07 02:45:35;;;;;;;;;;;;;;;;;;4995167;28;90654;-80
2023/06/07 02:48:01;;;;;;;;;;;;;;;;;;4996623;28;89496;-77
2023/06/07 02:50:26;;;;;;;;;;;;;;;;;;4996218;28;90192;-77
2023/06/07 02:52:51;;;;;;;;;;;;;;;;;;4998480;28;90591;-77
2023/06/07 02:55:17;;;;;;;;;;;;;;;;;;4991184;28;89384;-77
2023/06/07 02:57:42;;;;;;;;;;;;;;;;;;5000220;28;89026;-76
2023/06/07 03:00:10;;;;;;;;;;;;;;;;;;5003171;28;92243;-79
2023/06/07 03:02:36;;;;;;;;;;;;;;;;;;4998660;28;90428;-76
2023/06/07 03:05:01;;;;;;;;;;;;;;;;;;5000260;28;89595;-77
2023/06/07 03:07:27;;;;;;;;;;;;;;;;;;4999233;28;90859;-78
2023/06/07 03:09:52;;;;;;;;;;;;;;;;;;5000556;28;89656;-78
2023/06/07 03:12:17;;;;;;;;;;;;;;;;;;5002629;28;89049;-79
2023/06/07 03:14:42;;;;;;;;;;;;;;;;;;5000524;28;89558;-79
2023/06/07 03:17:08;;;;;;;;;;;;;;;;;;5001551;28;89511;-78
2023/06/07 03:19:34;;;;;;;;;;;;;;;;;;4997655;28;90144;-79
2023/06/07 03:22:00;;;;;;;;;;;;;;;;;;5003086;28;90463;-79
2023/06/07 03:24:28;;;;;;;;;;;;;;;;;;4996112;28;89692;-79
2023/06/07 03:26:53;;;;;;;;;;;;;;;;;;4997551;28;90589;-79
2023/06/07 03:29:18;;;;;;;;;;;;;;;;;;5001243;28;90178;-80
2023/06/07 03:31:43;;;;;;;;;;;;;;;;;;4997976;28;89925;-79
2023/06/07 03:34:09;;;;;;;;;;;;;;;;;;4998951;28;90571;-80
2023/06/07 03:36:35;;;;;;;;;;;;;;;;;;5002337;28;90179;-78
2023/06/07 03:39:01;;;;;;;;;;;;;;;;;;4997586;28;90589;-79
2023/06/07 03:41:26;;;;;;;;;;;;;;;;;;4994342;28;91229;-79
2023/06/07 03:43:52;;;;;;;;;;;;;;;;;;4990344;28;89834;-78
2023/06/07 03:46:17;;;;;;;;;;;;;;;;;;4999014;28;89514;-78
2023/06/07 03:48:42;;;;;;;;;;;;;;;;;;4998319;28;89251;-77
2023/06/07 03:51:08;;;;;;;;;;;;;;;;;;5004261;28;89013;-79
2023/06/07 03:53:33;;;;;;;;;;;;;;;;;;4999930;28;89960;-77
2023/06/07 03:55:59;;;;;;;;;;;;;;;;;;4994525;28;89221;-80
2023/06/07 03:58:24;;;;;;;;;;;;;;;;;;5005688;28;89591;-79
2023/06/07 04:00:51;;;;;;;;;;;;;;;;;;5000738;28;90387;-75
2023/06/07 04:03:16;;;;;;;;;;;;;;;;;;4993207;28;89732;-77
2023/06/07 04:05:42;;;;;;;;;;;;;;;;;;4991744;28;89664;-77
2023/06/07 04:08:09;;;;;;;;;;;;;;;;;;4993126;28;89480;-76
2023/06/07 04:10:35;;;;;;;;;;;;;;;;;;4992061;28;89086;-79
2023/06/07 04:13:00;;;;;;;;;;;;;;;;;;4999175;28;91186;-77
2023/06/07 04:15:25;;;;;;;;;;;;;;;;;;4995771;28;90352;-79
2023/06/07 04:17:50;;;;;;;;;;;;;;;;;;4994879;28;89123;-77
2023/06/07 04:20:16;;;;;;;;;;;;;;;;;;4995183;28;89155;-79
2023/06/07 04:22:41;;;;;;;;;;;;;;;;;;4995245;28;90035;-78
2023/06/07 04:25:07;;;;;;;;;;;;;;;;;;4997526;28;89906;-76
2023/06/07 04:27:32;;;;;;;;;;;;;;;;;;4994485;28;91059;-79
2023/06/07 04:30:01;;;;;;;;;;;;;;;;;;4996799;28;89565;-78
2023/06/07 04:32:27;;;;;;;;;;;;;;;;;;4992982;28;90219;-80
2023/06/07 04:34:53;;;;;;;;;;;;;;;;;;5013535;28;92081;-74
2023/06/07 04:37:19;;;;;;;;;;;;;;;;;;4995128;28;89113;-75
2023/06/07 04:39:44;;;;;;;;;;;;;;;;;;4995185;28;91018;-79
2023/06/07 04:42:11;;;;;;;;;;;;;;;;;;4998138;28;89503;-76
2023/06/07 04:44:36;;;;;;;;;;;;;;;;;;4994680;28;90603;-76
2023/06/07 04:47:03;;;;;;;;;;;;;;;;;;4995871;28;89218;-78
2023/06/07 04:49:28;;;;;;;;;;;;;;;;;;4995549;28;89147;-75
2023/06/07 04:51:55;;;;;;;;;;;;;;;;;;4997611;28;90078;-75
2023/06/07 04:54:20;;;;;;;;;;;;;;;;;;4993495;28;90477;-78
2023/06/07 04:56:46;;;;;;;;;;;;;;;;;;4994901;28;90454;-75
2023/06/07 04:59:11;;;;;;;;;;;;;;;;;;4995361;28;90710;-77
2023/06/07 05:01:36;;;;;;;;;;;;;;;;;;4999888;28;90663;-78
2023/06/07 05:04:02;;;;;;;;;;;;;;;;;;4992914;28;89661;-79
2023/06/07 05:06:37;;;;;;;;;;;;;;;;;;4991528;28;89519;-78
2023/06/07 05:09:03;;;;;;;;;;;;;;;;;;4997337;28;88987;-77
2023/06/07 05:11:29;;;;;;;;;;;;;;;;;;4992688;28;89605;-77
2023/06/07 05:13:54;;;;;;;;;;;;;;;;;;4995105;28;89460;-77
2023/06/07 05:16:20;;;;;;;;;;;;;;;;;;5002065;28;89259;-77
2023/06/07 05:18:53;;;;;;;;;;;;;;;;;;4992631;28;89508;-77
2023/06/07 05:21:18;;;;;;;;;;;;;;;;;;4997119;28;90326;-75
2023/06/07 05:23:44;;;;;;;;;;;;;;;;;;4998015;28;89123;-75
2023/06/07 05:26:10;;;;;;;;;;;;;;;;;;4994489;28;90247;-75
2023/06/07 05:28:35;;;;;;;;;;;;;;;;;;4999100;28;89324;-75
2023/06/07 05:31:01;;;;;;;;;;;;;;;;;;4995461;28;89094;-74
2023/06/07 05:33:28;;;;;;;;;;;;;;;;;;4994144;28;92170;-74
2023/06/07 05:35:54;;;;;;;;;;;;;;;;;;4996529;28;89778;-74
2023/06/07 05:38:19;;;;;;;;;;;;;;;;;;4996013;28;90051;-75
2023/06/07 05:40:44;;;;;;;;;;;;;;;;;;4997339;28;89224;-74
2023/06/07 05:43:09;;;;;;;;;;;;;;;;;;4999025;28;88873;-74
2023/06/07 05:45:35;;;;;;;;;;;;;;;;;;4996831;28;90877;-73
2023/06/07 05:48:00;;;;;;;;;;;;;;;;;;4991427;28;89748;-72
2023/06/07 05:50:25;;;;;;;;;;;;;;;;;;4988854;28;90271;-73
2023/06/07 05:52:57;;;;;;;;;;;;;;;;;;5000084;28;90024;-75
2023/06/07 05:55:26;;;;;;;;;;;;;;;;;;5001354;28;89187;-73
2023/06/07 05:57:52;;;;;;;;;;;;;;;;;;4998352;28;89444;-73
2023/06/07 06:00:17;;;;;;;;;;;;;;;;;;4994431;28;90124;-79
2023/06/07 06:02:45;;;;;;;;;;;;;;;;;;4998609;28;88956;-72
2023/06/07 06:05:11;;;;;;;;;;;;;;;;;;4998722;28;89678;-75
2023/06/07 06:07:36;;;;;;;;;;;;;;;;;;4997714;28;90768;-75
2023/06/07 06:10:04;;;;;;;;;;;;;;;;;;4996987;28;89766;-74
2023/06/07 06:12:29;;;;;;;;;;;;;;;;;;5000780;28;90745;-74
2023/06/07 06:14:55;;;;;;;;;;;;;;;;;;4996288;28;89017;-75
2023/06/07 06:17:21;;;;;;;;;;;;;;;;;;4993210;28;90648;-74
2023/06/07 06:19:46;;;;;;;;;;;;;;;;;;4997425;28;89801;-74
2023/06/07 06:22:11;;;;;;;;;;;;;;;;;;4995980;28;90094;-75
2023/06/07 06:24:37;;;;;;;;;;;;;;;;;;4986377;28;89815;-72
2023/06/07 06:27:02;;;;;;;;;;;;;;;;;;4999012;28;89169;-74
2023/06/07 06:29:27;;;;;;;;;;;;;;;;;;5004045;28;92409;-74
2023/06/07 06:31:52;;;;;;;;;;;;;;;;;;4999749;28;91197;-75
2023/06/07 06:34:18;;;;;;;;;;;;;;;;;;5002380;28;89056;-77
2023/06/07 06:36:44;;;;;;;;;;;;;;;;;;4996918;28;90094;-77
2023/06/07 06:39:09;;;;;;;;;;;;;;;;;;4998767;28;89167;-76
2023/06/07 06:41:35;;;;;;;;;;;;;;;;;;5000130;28;89647;-74
2023/06/07 06:44:00;;;;;;;;;;;;;;;;;;5005232;28;89860;-74
2023/06/07 06:46:25;;;;;;;;;;;;;;;;;;4993531;28;89150;-74
2023/06/07 06:48:50;;;;;;;;;;;;;;;;;;5002679;28;89345;-75
2023/06/07 06:51:16;;;;;;;;;;;;;;;;;;4998260;28;89816;-76
2023/06/07 06:53:41;;;;;;;;;;;;;;;;;;4999851;28;89635;-76
2023/06/07 06:56:06;;;;;;;;;;;;;;;;;;5007134;28;90511;-74
2023/06/07 06:58:34;;;;;;;;;;;;;;;;;;5005237;28;89981;-73
2023/06/07 07:00:59;;;;;;;;;;;;;;;;;;5009136;28;89146;-74
2023/06/07 07:03:25;;;;;;;;;;;;;;;;;;5009126;28;89739;-74
2023/06/07 07:05:50;;;;;;;;;;;;;;;;;;5006388;28;91420;-74
2023/06/07 07:08:17;;;;;;;;;;;;;;;;;;5003052;28;89731;-75
2023/06/07 07:10:42;;;;;;;;;;;;;;;;;;5007601;28;90701;-75
2023/06/07 07:13:07;;;;;;;;;;;;;;;;;;5006497;28;89137;-73
2023/06/07 07:15:33;;;;;;;;;;;;;;;;;;5007567;28;89147;-76
2023/06/07 07:17:58;;;;;;;;;;;;;;;;;;4998839;28;90317;-75
2023/06/07 07:20:23;;;;;;;;;;;;;;;;;;4996763;28;89452;-75
2023/06/07 07:22:48;;;;;;;;;;;;;;;;;;5007018;28;90530;-76
2023/06/07 07:25:14;;;;;;;;;;;;;;;;;;5005193;28;89284;-75
2023/06/07 07:27:40;;;;;;;;;;;;;;;;;;4999565;28;89259;-75
2023/06/07 07:30:05;;;;;;;;;;;;;;;;;;5008579;28;89481;-75
2023/06/07 07:32:31;;;;;;;;;;;;;;;;;;5011540;28;90851;-76
2023/06/07 07:34:56;;;;;;;;;;;;;;;;;;5005953;28;92383;-76
2023/06/07 07:37:21;;;;;;;;;;;;;;;;;;5007090;28;89460;-76
2023/06/07 07:39:46;;;;;;;;;;;;;;;;;;5006358;28;89443;-75
2023/06/07 07:42:12;;;;;;;;;;;;;;;;;;5007529;28;89817;-76
2023/06/07 07:44:37;;;;;;;;;;;;;;;;;;5007500;28;89699;-76
2023/06/07 07:47:03;;;;;;;;;;;;;;;;;;5007468;28;89427;-76
2023/06/07 07:49:28;;;;;;;;;;;;;;;;;;5007283;28;89536;-75
2023/06/07 07:51:53;;;;;;;;;;;;;;;;;;5007570;28;89732;-76
2023/06/07 07:54:18;;;;;;;;;;;;;;;;;;5011229;28;89011;-76
2023/06/07 07:56:44;;;;;;;;;;;;;;;;;;5008089;28;89761;-76
2023/06/07 07:59:10;;;;;;;;;;;;;;;;;;5008649;28;90208;-75
2023/06/07 08:01:35;;;;;;;;;;;;;;;;;;5008821;28;90771;-76
2023/06/07 08:04:00;;;;;;;;;;;;;;;;;;5008614;28;89576;-75
2023/06/07 08:06:26;;;;;;;;;;;;;;;;;;5008486;28;89568;-75
2023/06/07 08:08:51;;;;;;;;;;;;;;;;;;5007497;28;90605;-75
2023/06/07 08:11:17;;;;;;;;;;;;;;;;;;5008120;28;89183;-74
2023/06/07 08:13:42;;;;;;;;;;;;;;;;;;5011089;28;89707;-75
2023/06/07 08:16:07;;;;;;;;;;;;;;;;;;5008409;28;89728;-76
2023/06/07 08:18:32;;;;;;;;;;;;;;;;;;5008422;28;89563;-76
2023/06/07 08:20:57;;;;;;;;;;;;;;;;;;5007863;28;89551;-76
2023/06/07 08:23:23;;;;;;;;;;;;;;;;;;5008067;28;89746;-75
2023/06/07 08:25:48;;;;;;;;;;;;;;;;;;5006897;28;89454;-74
2023/06/07 08:28:14;;;;;;;;;;;;;;;;;;5007633;28;89636;-76
2023/06/07 08:30:41;;;;;;;;;;;;;;;;;;5007489;28;89518;-76
2023/06/07 08:33:06;;;;;;;;;;;;;;;;;;5007895;28;89546;-76
2023/06/07 08:35:32;;;;;;;;;;;;;;;;;;5010334;28;90774;-76
2023/06/07 08:37:57;;;;;;;;;;;;;;;;;;5007701;28;89564;-76
2023/06/07 08:40:24;;;;;;;;;;;;;;;;;;5007296;28;90079;-76
2023/06/07 08:42:49;;;;;;;;;;;;;;;;;;5008007;28;89229;-77
2023/06/07 08:45:15;;;;;;;;;;;;;;;;;;5007825;28;89050;-76
2023/06/07 08:47:42;;;;;;;;;;;;;;;;;;5007879;28;89605;-76
2023/06/07 08:50:09;;;;;;;;;;;;;;;;;;5008415;28;89624;-77
2023/06/07 08:52:38;;;;;;;;;;;;;;;;;;5007735;28;89021;-76
2023/06/07 08:55:03;;;;;;;;;;;;;;;;;;5008193;28;89285;-76
2023/06/07 08:57:30;;;;;;;;;;;;;;;;;;5011654;28;89531;-75
2023/06/07 08:59:56;;;;;;;;;;;;;;;;;;5008393;28;89682;-76
2023/06/07 09:02:23;;;;;;;;;;;;;;;;;;5007999;28;89675;-75
2023/06/07 09:04:48;;;;;;;;;;;;;;;;;;5007970;28;89293;-76
2023/06/07 09:07:14;;;;;;;;;;;;;;;;;;5006720;28;92622;-77
2023/06/07 09:09:39;;;;;;;;;;;;;;;;;;5008339;28;89220;-75
2023/06/07 09:12:05;;;;;;;;;;;;;;;;;;5009441;28;89031;-76
2023/06/07 09:14:30;;;;;;;;;;;;;;;;;;5007682;28;89527;-76
2023/06/07 09:16:57;;;;;;;;;;;;;;;;;;5008544;28;90259;-75
2023/06/07 09:19:36;;;;;;;;;;;;;;;;;;5009596;28;90248;-74
2023/06/07 09:22:03;;;;;;;;;;;;;;;;;;5008827;28;90869;-75
2023/06/07 09:24:29;;;;;;;;;;;;;;;;;;5008503;28;89757;-77
2023/06/07 09:26:55;;;;;;;;;;;;;;;;;;5007889;28;89605;-75
2023/06/07 09:29:20;;;;;;;;;;;;;;;;;;5007184;28;89046;-75
2023/06/07 09:31:45;;;;;;;;;;;;;;;;;;5007729;28;89564;-75
2023/06/07 09:34:21;;;;;;;;;;;;;;;;;;5007256;28;90075;-77
2023/06/07 09:36:56;;;;;;;;;;;;;;;;;;5007297;28;90183;-75
2023/06/07 09:39:23;;;;;;;;;;;;;;;;;;5007143;28;89017;-76
2023/06/07 09:41:48;;;;;;;;;;;;;;;;;;5010041;28;89485;-76
2023/06/07 09:44:23;;;;;;;;;;;;;;;;;;5005092;28;91231;-76
2023/06/07 09:46:49;;;;;;;;;;;;;;;;;;5006432;28;89793;-76
2023/06/07 09:49:21;;;;;;;;;;;;;;;;;;5006841;28;89661;-76
2023/06/07 09:51:46;;;;;;;;;;;;;;;;;;5006204;28;89217;-76
2023/06/07 09:54:12;;;;;;;;;;;;;;;;;;5006362;28;89507;-77
2023/06/07 09:56:40;;;;;;;;;;;;;;;;;;5006429;28;89725;-77
2023/06/07 09:59:05;;;;;;;;;;;;;;;;;;5006494;28;89410;-77
2023/06/07 10:01:35;;;;;;;;;;;;;;;;;;5007890;28;90735;-76
2023/06/07 10:04:01;;;;;;;;;;;;;;;;;;5013214;28;90585;-76
2023/06/07 10:06:29;;;;;;;;;;;;;;;;;;5004618;28;90735;-74
2023/06/07 10:08:55;;;;;;;;;;;;;;;;;;5001428;28;89104;-75
2023/06/07 10:11:21;;;;;;;;;;;;;;;;;;5009841;28;90354;-76
2023/06/07 10:13:47;;;;;;;;;;;;;;;;;;5009970;28;89441;-75
2023/06/07 10:16:13;;;;;;;;;;;;;;;;;;5010299;28;89247;-74
2023/06/07 10:18:39;;;;;;;;;;;;;;;;;;5010435;28;88991;-76
2023/06/07 10:21:08;;;;;;;;;;;;;;;;;;5009991;28;89560;-76
2023/06/07 10:23:33;;;;;;;;;;;;;;;;;;5013011;28;89554;-76
2023/06/07 10:25:59;;;;;;;;;;;;;;;;;;5008508;28;92154;-76
2023/06/07 10:28:30;;;;;;;;;;;;;;;;;;5009641;28;90806;-76
2023/06/07 10:31:04;;;;;;;;;;;;;;;;;;5009723;28;89120;-76
2023/06/07 10:33:29;;;;;;;;;;;;;;;;;;5010339;28;90678;-74
2023/06/07 10:35:55;;;;;;;;;;;;;;;;;;5010556;28;89188;-75
2023/06/07 10:38:20;;;;;;;;;;;;;;;;;;5010718;28;89096;-75
2023/06/07 10:40:45;;;;;;;;;;;;;;;;;;5011776;28;89597;-76
2023/06/07 10:43:11;;;;;;;;;;;;;;;;;;5009884;28;89361;-75
2023/06/07 10:45:36;;;;;;;;;;;;;;;;;;5013585;28;89237;-76
2023/06/07 10:48:24;;;;;;;;;;;;;;;;;;5009183;28;90319;-76
2023/06/07 10:50:50;;;;;;;;;;;;;;;;;;5006981;28;89115;-76
2023/06/07 10:53:15;;;;;;;;;;;;;;;;;;5009823;28;89723;-77
2023/06/07 10:55:40;;;;;;;;;;;;;;;;;;5009403;28;90247;-76
2023/06/07 10:58:24;;;;;;;;;;;;;;;;;;5008767;28;89780;-77
2023/06/07 11:00:49;;;;;;;;;;;;;;;;;;5009044;28;89573;-77
2023/06/07 11:03:21;;;;;;;;;;;;;;;;;;5009815;28;90179;-77
2023/06/07 11:05:52;;;;;;;;;;;;;;;;;;5009328;28;89245;-77
2023/06/07 11:08:24;;;;;;;;;;;;;;;;;;5011858;28;89584;-74
2023/06/07 11:10:50;;;;;;;;;;;;;;;;;;5008995;28;89772;-75
2023/06/07 11:13:15;;;;;;;;;;;;;;;;;;5007335;28;89650;-75
2023/06/07 11:15:40;;;;;;;;;;;;;;;;;;5008557;28;89151;-75
2023/06/07 11:18:08;;;;;;;;;;;;;;;;;;5009186;28;89100;-75
2023/06/07 11:20:36;;;;;;;;;;;;;;;;;;5009426;28;90777;-76
2023/06/07 11:23:24;;;;;;;;;;;;;;;;;;5008594;28;89477;-75
2023/06/07 11:25:51;;;;;;;;;;;;;;;;;;5008825;28;89480;-76
2023/06/07 11:28:20;;;;;;;;;;;;;;;;;;5007883;28;90933;-77
2023/06/07 11:30:46;;;;;;;;;;;;;;;;;;5011630;28;89314;-77
2023/06/07 11:33:18;;;;;;;;;;;;;;;;;;5009040;28;89744;-77
2023/06/07 11:35:43;;;;;;;;;;;;;;;;;;5008955;28;89190;-76
2023/06/07 11:38:09;;;;;;;;;;;;;;;;;;5008872;28;88981;-77
2023/06/07 11:40:34;;;;;;;;;;;;;;;;;;5009696;28;90686;-76
2023/06/07 11:43:01;;;;;;;;;;;;;;;;;;5008749;28;89455;-76
2023/06/07 11:45:26;;;;;;;;;;;;;;;;;;5008656;28;89150;-76
2023/06/07 11:47:56;;;;;;;;;;;;;;;;;;5008124;28;89638;-76
2023/06/07 11:50:22;;;;;;;;;;;;;;;;;;5008668;28;89400;-76
2023/06/07 11:52:47;;;;;;;;;;;;;;;;;;5012040;28;89543;-75
2023/06/07 11:55:13;;;;;;;;;;;;;;;;;;5007616;28;91438;-74
2023/06/07 11:57:38;;;;;;;;;;;;;;;;;;5008504;28;89114;-77
2023/06/07 12:00:17;;;;;;;;;;;;;;;;;;5008720;28;90716;-77
2023/06/07 12:02:43;;;;;;;;;;;;;;;;;;5008834;28;90197;-77
2023/06/07 12:05:12;;;;;;;;;;;;;;;;;;5008875;28;89302;-77
2023/06/07 12:07:39;;;;;;;;;;;;;;;;;;5008221;28;89567;-77
2023/06/07 12:10:08;;;;;;;;;;;;;;;;;;5008372;28;89491;-77
2023/06/07 12:12:33;;;;;;;;;;;;;;;;;;5007958;28;89067;-74
2023/06/07 12:15:00;;;;;;;;;;;;;;;;;;5010235;28;89505;-76
2023/06/07 12:17:25;;;;;;;;;;;;;;;;;;5007553;28;89494;-76
2023/06/07 12:19:51;;;;;;;;;;;;;;;;;;5007874;28;90627;-77
2023/06/07 12:22:16;;;;;;;;;;;;;;;;;;5007493;28;89294;-76
2023/06/07 12:24:41;;;;;;;;;;;;;;;;;;5007092;28;89053;-74
2023/06/07 12:27:11;;;;;;;;;;;;;;;;;;5007659;28;89004;-76
2023/06/07 12:29:37;;;;;;;;;;;;;;;;;;5007506;28;90461;-75
2023/06/07 12:32:02;;;;;;;;;;;;;;;;;;5007583;28;89554;-78
2023/06/07 12:34:29;;;;;;;;;;;;;;;;;;5010800;28;90747;-77
2023/06/07 12:36:54;;;;;;;;;;;;;;;;;;5007409;28;89551;-77
2023/06/07 12:39:21;;;;;;;;;;;;;;;;;;5008189;28;90724;-77
2023/06/07 12:41:46;;;;;;;;;;;;;;;;;;5007646;28;89434;-75
2023/06/07 12:44:12;;;;;;;;;;;;;;;;;;5008069;28;89946;-76
2023/06/07 12:46:37;;;;;;;;;;;;;;;;;;5007477;28;89230;-77
2023/06/07 12:49:03;;;;;;;;;;;;;;;;;;5007451;28;89204;-77
2023/06/07 12:51:28;;;;;;;;;;;;;;;;;;5007694;28;89366;-75
2023/06/07 12:53:54;;;;;;;;;;;;;;;;;;5007882;28;89845;-75
2023/06/07 12:56:20;;;;;;;;;;;;;;;;;;5010634;28;89645;-76
2023/06/07 12:58:45;;;;;;;;;;;;;;;;;;5007419;28;89501;-76
2023/06/07 13:01:10;;;;;;;;;;;;;;;;;;5006833;28;89653;-78
2023/06/07 13:03:35;;;;;;;;;;;;;;;;;;5007420;28;89767;-77
2023/06/07 13:06:01;;;;;;;;;;;;;;;;;;5007123;28;89603;-76
2023/06/07 13:08:26;;;;;;;;;;;;;;;;;;5007177;28;89451;-76
2023/06/07 13:10:52;;;;;;;;;;;;;;;;;;5006721;28;89111;-77
2023/06/07 13:13:17;;;;;;;;;;;;;;;;;;5006982;28;89672;-78
2023/06/07 13:15:42;;;;;;;;;;;;;;;;;;5006514;28;90141;-77
2023/06/07 13:18:08;;;;;;;;;;;;;;;;;;5010243;28;89400;-76
2023/06/07 13:20:33;;;;;;;;;;;;;;;;;;5006997;28;90097;-76
2023/06/07 13:22:58;;;;;;;;;;;;;;;;;;5007319;28;89759;-77
2023/06/07 13:25:23;;;;;;;;;;;;;;;;;;5006577;28;90530;-75
2023/06/07 13:27:49;;;;;;;;;;;;;;;;;;5007448;28;89702;-75
2023/06/07 13:30:14;;;;;;;;;;;;;;;;;;5007230;28;89039;-77
2023/06/07 13:32:40;;;;;;;;;;;;;;;;;;5007002;28;89587;-77
2023/06/07 13:35:05;;;;;;;;;;;;;;;;;;5006980;28;89215;-77
2023/06/07 13:37:30;;;;;;;;;;;;;;;;;;5005548;28;89090;-78
2023/06/07 13:39:57;;;;;;;;;;;;;;;;;;5009426;28;89535;-77
2023/06/07 13:42:24;;;;;;;;;;;;;;;;;;5007329;28;88995;-77
2023/06/07 13:44:49;;;;;;;;;;;;;;;;;;5006846;28;90483;-78
2023/06/07 13:47:15;;;;;;;;;;;;;;;;;;5005796;28;90447;-76
2023/06/07 13:49:40;;;;;;;;;;;;;;;;;;5005879;28;89582;-77
2023/06/07 13:52:06;;;;;;;;;;;;;;;;;;5006426;28;90197;-77
2023/06/07 13:54:31;;;;;;;;;;;;;;;;;;5006725;28;90400;-77
2023/06/07 13:56:57;;;;;;;;;;;;;;;;;;5006529;28;89166;-77
2023/06/07 13:59:23;;;;;;;;;;;;;;;;;;5006183;28;90581;-77
2023/06/07 14:01:48;;;;;;;;;;;;;;;;;;4995198;28;90285;-76
2023/06/07 14:04:13;;;;;;;;;;;;;;;;;;4996309;28;90139;-77
2023/06/07 14:06:39;;;;;;;;;;;;;;;;;;5006843;28;90175;-76
2023/06/07 14:09:04;;;;;;;;;;;;;;;;;;5006088;28;89698;-78
2023/06/07 14:11:30;;;;;;;;;;;;;;;;;;5006481;28;89500;-76
2023/06/07 14:13:56;;;;;;;;;;;;;;;;;;5006283;28;90386;-77
2023/06/07 14:16:21;;;;;;;;;;;;;;;;;;5005985;28;89559;-78
2023/06/07 14:18:47;;;;;;;;;;;;;;;;;;5005864;28;89367;-77
2023/06/07 14:21:12;;;;;;;;;;;;;;;;;;5009177;28;89611;-75
2023/06/07 14:23:37;;;;;;;;;;;;;;;;;;5006381;28;89482;-77
2023/06/07 14:26:02;;;;;;;;;;;;;;;;;;5006315;28;89333;-77
2023/06/07 14:28:27;;;;;;;;;;;;;;;;;;5006103;28;89743;-76
2023/06/07 14:30:53;;;;;;;;;;;;;;;;;;5006030;28;89487;-77
2023/06/07 14:33:18;;;;;;;;;;;;;;;;;;5006443;28;89235;-76
2023/06/07 14:35:43;;;;;;;;;;;;;;;;;;5005965;28;88998;-76
2023/06/07 14:38:09;;;;;;;;;;;;;;;;;;5006238;28;89029;-75
2023/06/07 14:40:34;;;;;;;;;;;;;;;;;;5005670;28;89893;-77
2023/06/07 14:42:59;;;;;;;;;;;;;;;;;;5006949;28;89195;-76
2023/06/07 14:45:26;;;;;;;;;;;;;;;;;;5006357;28;89314;-77
2023/06/07 14:47:51;;;;;;;;;;;;;;;;;;5006742;28;89086;-77
2023/06/07 14:50:17;;;;;;;;;;;;;;;;;;5009412;28;89524;-77
2023/06/07 14:52:42;;;;;;;;;;;;;;;;;;5009367;28;89630;-77
2023/06/07 14:55:08;;;;;;;;;;;;;;;;;;5009558;28;89042;-76
2023/06/07 14:57:33;;;;;;;;;;;;;;;;;;5009323;28;89525;-75
2023/06/07 14:59:58;;;;;;;;;;;;;;;;;;5009328;28;89145;-77
2023/06/07 15:02:23;;;;;;;;;;;;;;;;;;5008501;28;89716;-77
2023/06/07 15:04:48;;;;;;;;;;;;;;;;;;5011741;28;89557;-77
2023/06/07 15:07:14;;;;;;;;;;;;;;;;;;5009148;28;88968;-77
2023/06/07 15:09:39;;;;;;;;;;;;;;;;;;5008611;28;89831;-77
2023/06/07 15:12:05;;;;;;;;;;;;;;;;;;5008993;28;89246;-78
2023/06/07 15:14:30;;;;;;;;;;;;;;;;;;5009104;28;89079;-77
2023/06/07 15:16:56;;;;;;;;;;;;;;;;;;5009343;28;89610;-78
2023/06/07 15:19:21;;;;;;;;;;;;;;;;;;5009276;28;89204;-77
2023/06/07 15:21:49;;;;;;;;;;;;;;;;;;5008885;28;89491;-78
2023/06/07 15:24:15;;;;;;;;;;;;;;;;;;5009049;28;89776;-78
2023/06/07 15:26:43;;;;;;;;;;;;;;;;;;5011258;28;89186;-78
2023/06/07 15:29:08;;;;;;;;;;;;;;;;;;5008824;28;89663;-76
2023/06/07 15:31:34;;;;;;;;;;;;;;;;;;5008488;28;89865;-77
2023/06/07 15:33:59;;;;;;;;;;;;;;;;;;5008963;28;89031;-77
2023/06/07 15:36:24;;;;;;;;;;;;;;;;;;5008230;28;90630;-78
2023/06/07 15:38:50;;;;;;;;;;;;;;;;;;5008674;28;90213;-78
2023/06/07 15:41:15;;;;;;;;;;;;;;;;;;5008091;28;90210;-78
2023/06/07 15:43:46;;;;;;;;;;;;;;;;;;5008686;28;90308;-77
2023/06/07 15:46:11;;;;;;;;;;;;;;;;;;5007866;28;89188;-76
2023/06/07 15:48:36;;;;;;;;;;;;;;;;;;5010971;28;89399;-77
2023/06/07 15:51:02;;;;;;;;;;;;;;;;;;5007391;28;89532;-79
2023/06/07 15:53:27;;;;;;;;;;;;;;;;;;5008178;28;89018;-79
2023/06/07 15:55:52;;;;;;;;;;;;;;;;;;5008259;28;89509;-79
2023/06/07 15:58:17;;;;;;;;;;;;;;;;;;5008220;28;89887;-76
2023/06/07 16:00:46;;;;;;;;;;;;;;;;;;5007200;28;89716;-77
2023/06/07 16:03:12;;;;;;;;;;;;;;;;;;5008273;28;89454;-77
2023/06/07 16:05:37;;;;;;;;;;;;;;;;;;5008222;28;89275;-78
2023/06/07 16:08:02;;;;;;;;;;;;;;;;;;5007848;28;88956;-78
2023/06/07 16:10:27;;;;;;;;;;;;;;;;;;5010969;28;89549;-76
2023/06/07 16:12:54;;;;;;;;;;;;;;;;;;5008064;28;89369;-78
2023/06/07 16:15:19;;;;;;;;;;;;;;;;;;5007249;28;90678;-78
2023/06/07 16:17:45;;;;;;;;;;;;;;;;;;5007535;28;89437;-77
2023/06/07 16:20:11;;;;;;;;;;;;;;;;;;5007712;28;89050;-78
2023/06/07 16:22:37;;;;;;;;;;;;;;;;;;5008009;28;90740;-78
2023/06/07 16:25:02;;;;;;;;;;;;;;;;;;5006403;28;90214;-78
2023/06/07 16:27:27;;;;;;;;;;;;;;;;;;5007441;28;89610;-78
2023/06/07 16:29:53;;;;;;;;;;;;;;;;;;5010197;28;89332;-78
2023/06/07 16:32:18;;;;;;;;;;;;;;;;;;5008010;28;89662;-78
2023/06/07 16:34:43;;;;;;;;;;;;;;;;;;5006695;28;90719;-77
2023/06/07 16:37:08;;;;;;;;;;;;;;;;;;5007832;28;89407;-77
2023/06/07 16:39:34;;;;;;;;;;;;;;;;;;5007496;28;89664;-76